Abraham Baldwin College, Georgia
Current Conditions -  °F | °C
As of 8:15 AM on Friday 28 Nov 2014 (Local Time) from KTMA Reporting Station
Clear Clear  
Wind Chill: 28°   Ceiling: Unl
Heat Index: 34°   Visibility: 10mi
Dew Point: 28°   Wind: 7mph
Humidity: 76%   Direction: 350°N
Pressure: 30.39"   Gusts: NA
Location:  31.4406°N, 83.464°W
Report Text: KTMA 281315Z AUTO 35006KT 10SM CLR 01/M02 A3039 RMK AO2 T00131025
Loading
Personal Weather Stations






























Interactive Weather Map New forecast layout! Learn more

10-Day Weather Forecast

Advertisements
Track Severe Weather on mobile